createdAt,value
2017-11-29T00:01:17.071Z,19.57
2017-11-29T00:06:19.354Z,27.93
2017-11-29T00:11:21.624Z,28.60
2017-11-29T00:16:23.192Z,32.63
2017-11-29T00:21:24.694Z,27.63
2017-11-29T00:26:26.209Z,19.40
2017-11-29T00:31:27.713Z,27.53
2017-11-29T00:36:29.232Z,28.47
2017-11-29T00:41:30.746Z,31.93
2017-11-29T00:46:33.003Z,28.73
2017-11-29T00:51:34.675Z,33.07
2017-11-29T00:56:36.150Z,29.20
2017-11-29T01:01:37.671Z,23.13
2017-11-29T01:06:39.176Z,28.47
2017-11-29T01:11:40.690Z,26.70
2017-11-29T01:16:42.259Z,32.90
2017-11-29T01:21:43.764Z,28.53
2017-11-29T01:26:45.267Z,28.33
2017-11-29T01:31:47.538Z,35.00
2017-11-29T01:36:49.827Z,31.23
2017-11-29T01:41:52.126Z,38.10
2017-11-29T01:46:54.374Z,33.93
2017-11-29T01:51:55.921Z,29.17
2017-11-29T01:56:57.433Z,38.37
2017-11-29T02:01:59.705Z,30.27
2017-11-29T02:07:01.206Z,32.73
2017-11-29T02:12:02.649Z,39.73
2017-11-29T02:17:04.903Z,30.40
2017-11-29T02:22:06.428Z,35.90
2017-11-29T02:27:07.930Z,30.60
2017-11-29T02:32:09.427Z,28.13
2017-11-29T02:37:11.677Z,26.43
2017-11-29T02:42:31.805Z,28.17
2017-11-29T02:47:33.338Z,35.30
2017-11-29T02:52:34.822Z,31.40
2017-11-29T02:57:36.330Z,28.23
2017-11-29T03:02:38.629Z,28.50
2017-11-29T03:07:40.889Z,33.90
2017-11-29T03:12:43.127Z,25.20
2017-11-29T03:17:44.715Z,35.17
2017-11-29T03:22:46.263Z,32.30
2017-11-29T03:27:47.791Z,36.70
2017-11-29T03:32:50.019Z,36.40
2017-11-29T03:37:51.511Z,34.70
2017-11-29T03:42:53.038Z,41.00
2017-11-29T03:47:54.674Z,30.93
2017-11-29T03:52:56.935Z,35.67
2017-11-29T03:57:58.467Z,43.13
2017-11-29T04:03:00.196Z,41.73
2017-11-29T04:08:02.436Z,42.50
2017-11-29T04:13:03.946Z,35.73
2017-11-29T04:18:06.206Z,42.87
2017-11-29T04:23:07.749Z,37.33
2017-11-29T04:28:09.272Z,49.73
2017-11-29T04:33:10.943Z,44.23
2017-11-29T04:38:12.467Z,37.23
2017-11-29T04:43:14.009Z,43.80
2017-11-29T04:48:15.503Z,43.83
2017-11-29T04:53:17.023Z,43.60
2017-11-29T04:58:18.527Z,41.00
2017-11-29T05:03:20.030Z,54.20
2017-11-29T05:08:22.259Z,39.07
2017-11-29T05:13:23.757Z,42.03
2017-11-29T05:18:25.325Z,39.27
2017-11-29T05:23:26.849Z,42.40
2017-11-29T05:28:28.377Z,45.93
2017-11-29T05:33:30.640Z,49.23
2017-11-29T05:38:32.142Z,46.27
2017-11-29T05:43:33.670Z,39.07
2017-11-29T05:48:35.222Z,46.10
2017-11-29T05:53:36.710Z,43.73
2017-11-29T05:58:38.203Z,45.00
2017-11-29T06:03:40.503Z,41.07
2017-11-29T06:08:42.019Z,38.93
2017-11-29T06:13:43.534Z,49.40
2017-11-29T06:18:45.060Z,47.47
2017-11-29T06:23:46.549Z,46.70
2017-11-29T06:28:48.798Z,43.90
2017-11-29T06:33:50.320Z,42.97
2017-11-29T06:38:51.829Z,54.97
2017-11-29T06:43:53.383Z,59.53
2017-11-29T06:48:54.905Z,43.80
2017-11-29T06:53:57.180Z,60.10
2017-11-29T06:58:58.720Z,46.10
2017-11-29T07:04:00.190Z,46.97
2017-11-29T07:09:01.867Z,55.33
2017-11-29T07:14:03.416Z,46.13
2017-11-29T07:19:04.942Z,44.20
2017-11-29T07:24:06.446Z,48.10
2017-11-29T07:29:08.031Z,48.47
2017-11-29T07:34:09.599Z,42.50
2017-11-29T07:39:11.130Z,49.87
2017-11-29T07:44:12.649Z,49.40
2017-11-29T07:49:14.166Z,52.70
2017-11-29T07:54:15.669Z,45.33
2017-11-29T07:59:17.154Z,47.63
2017-11-29T08:04:18.647Z,44.83
2017-11-29T08:09:20.157Z,47.53
2017-11-29T08:14:21.645Z,46.60
2017-11-29T08:19:23.451Z,43.20
2017-11-29T08:24:25.730Z,49.10
2017-11-29T08:29:28.130Z,71.33
2017-11-29T08:34:29.610Z,40.30
2017-11-29T08:39:31.226Z,36.73
2017-11-29T08:44:32.807Z,46.10
2017-11-29T08:49:34.337Z,41.90
2017-11-29T08:54:35.851Z,39.23
2017-11-29T08:59:38.095Z,35.43
2017-11-29T09:04:39.603Z,36.13
2017-11-29T09:09:41.882Z,32.53
2017-11-29T09:14:44.103Z,32.47
2017-11-29T09:19:45.743Z,30.63
2017-11-29T09:24:47.968Z,28.40
2017-11-29T09:29:49.495Z,24.73
2017-11-29T09:34:51.750Z,23.90
2017-11-29T09:39:53.279Z,29.17
2017-11-29T09:44:54.850Z,26.87
2017-11-29T09:49:56.366Z,22.10
2017-11-29T09:54:57.834Z,19.40
2017-11-29T09:59:59.317Z,18.53
2017-11-29T10:05:01.542Z,16.80
2017-11-29T10:10:03.058Z,22.83
2017-11-29T10:15:05.315Z,19.17
2017-11-29T10:20:06.847Z,15.93
2017-11-29T10:25:08.522Z,16.73
2017-11-29T10:30:10.019Z,19.43
2017-11-29T10:35:11.511Z,15.07
2017-11-29T10:40:13.746Z,17.43
2017-11-29T10:45:15.223Z,20.70
2017-11-29T10:50:16.734Z,15.03
2017-11-29T10:55:18.960Z,34.87
2017-11-29T11:00:29.172Z,15.37
2017-11-29T11:05:30.805Z,23.20
2017-11-29T11:10:32.360Z,13.80
2017-11-29T11:15:33.874Z,24.13
2017-11-29T11:20:35.396Z,17.90
2017-11-29T11:25:36.934Z,18.27
2017-11-29T11:30:39.173Z,25.57
2017-11-29T11:35:40.701Z,17.40
2017-11-29T11:40:42.208Z,16.90
2017-11-29T11:45:43.722Z,19.13
2017-11-29T11:50:45.246Z,21.00
2017-11-29T11:55:46.770Z,28.60
2017-11-29T12:00:48.293Z,19.77
2017-11-29T12:05:50.626Z,16.87
2017-11-29T12:10:52.189Z,21.10
2017-11-29T12:15:53.678Z,20.53
2017-11-29T12:20:55.200Z,20.53
2017-11-29T12:25:57.442Z,18.60
2017-11-29T12:30:58.978Z,20.37
2017-11-29T12:36:00.513Z,25.13
2017-11-29T12:41:02.806Z,21.63
2017-11-29T12:46:05.091Z,16.33
2017-11-29T12:51:16.047Z,10.30
2017-11-29T12:56:17.827Z,12.87
2017-11-29T13:01:19.379Z,15.10
2017-11-29T13:06:20.930Z,8.90
2017-11-29T13:11:22.580Z,11.03
2017-11-29T13:16:24.163Z,12.00
2017-11-29T13:21:25.694Z,30.60
2017-11-29T13:26:27.976Z,12.40
2017-11-29T13:31:30.232Z,10.97
2017-11-29T13:36:31.747Z,10.17
2017-11-29T13:41:33.289Z,14.57
2017-11-29T13:46:35.561Z,13.63
2017-11-29T13:51:37.068Z,13.17
2017-11-29T13:56:38.567Z,17.43
2017-11-29T14:01:40.095Z,18.57
2017-11-29T14:06:41.596Z,12.27
2017-11-29T14:11:43.484Z,15.63
2017-11-29T14:16:45.097Z,14.40
2017-11-29T14:21:47.373Z,15.17
2017-11-29T14:26:49.736Z,15.77
2017-11-29T14:31:51.253Z,13.20
2017-11-29T14:36:52.800Z,18.27
2017-11-29T14:41:55.128Z,12.17
2017-11-29T14:46:56.651Z,15.63
2017-11-29T14:51:58.931Z,17.20
2017-11-29T14:57:01.207Z,16.77
2017-11-29T15:02:03.556Z,15.10
2017-11-29T15:07:05.115Z,15.90
2017-11-29T15:12:06.647Z,16.57
2017-11-29T15:17:08.155Z,10.20
2017-11-29T15:22:09.714Z,10.70
2017-11-29T15:27:11.343Z,6.80
2017-11-29T15:32:13.659Z,10.43
2017-11-29T15:37:15.137Z,10.90
2017-11-29T15:42:17.535Z,7.03
2017-11-29T15:47:19.150Z,11.13
2017-11-29T15:52:21.500Z,9.23
2017-11-29T15:57:22.994Z,11.23
2017-11-29T16:02:24.546Z,10.83
2017-11-29T16:07:26.078Z,9.50
2017-11-29T16:12:27.532Z,11.00
2017-11-29T16:17:28.976Z,17.40
2017-11-29T16:22:31.404Z,14.47
2017-11-29T16:27:32.839Z,16.03
2017-11-29T16:32:34.286Z,17.60
2017-11-29T16:37:36.492Z,18.00
2017-11-29T16:42:37.957Z,19.53
2017-11-29T16:47:39.537Z,14.50
2017-11-29T16:52:41.079Z,14.90
2017-11-29T16:57:43.363Z,13.60
2017-11-29T17:02:45.559Z,18.93
2017-11-29T17:07:47.001Z,14.73
2017-11-29T17:12:49.266Z,20.60
2017-11-29T17:17:50.683Z,24.83
2017-11-29T17:22:52.127Z,20.07
2017-11-29T17:27:54.341Z,16.07
2017-11-29T17:32:55.859Z,20.20
2017-11-29T17:37:57.433Z,16.60
2017-11-29T17:42:59.683Z,22.93
2017-11-29T17:48:01.175Z,25.93
2017-11-29T17:53:02.779Z,26.80
2017-11-29T17:58:04.233Z,23.70
2017-11-29T18:03:05.701Z,21.97
2017-11-29T18:08:07.290Z,28.20
2017-11-29T18:13:08.857Z,23.03
2017-11-29T18:18:10.420Z,26.60
2017-11-29T18:23:11.971Z,130.40
2017-11-29T18:28:14.287Z,30.03
2017-11-29T18:33:15.835Z,28.73
2017-11-29T18:38:17.404Z,22.43
2017-11-29T18:43:18.951Z,24.10
2017-11-29T18:48:21.191Z,27.67
2017-11-29T18:53:22.736Z,20.90
2017-11-29T18:58:24.322Z,24.17
2017-11-29T19:03:25.845Z,23.43
2017-11-29T19:08:27.405Z,26.73
2017-11-29T19:13:29.698Z,33.73
2017-11-29T19:18:32.066Z,30.20
2017-11-29T19:23:34.337Z,46.33
2017-11-29T19:28:36.810Z,84.57
2017-11-29T19:33:38.334Z,41.53
2017-11-29T19:38:39.894Z,75.43
2017-11-29T19:43:42.144Z,47.63
2017-11-29T19:48:43.657Z,31.93
2017-11-29T19:53:45.221Z,81.30
2017-11-29T19:58:46.736Z,29.60
2017-11-29T20:03:48.268Z,49.60
2017-11-29T20:08:49.814Z,51.20
2017-11-29T20:13:51.354Z,55.80
2017-11-29T20:18:52.887Z,129.90
2017-11-29T20:23:54.484Z,99.07
2017-11-29T20:28:56.057Z,38.57
2017-11-29T20:33:57.607Z,40.70
2017-11-29T20:38:59.184Z,41.10
2017-11-29T20:44:00.729Z,40.60
2017-11-29T20:49:02.194Z,31.50
2017-11-29T20:54:03.722Z,37.37
2017-11-29T20:59:05.251Z,39.20
2017-11-29T21:04:06.833Z,43.57
2017-11-29T21:09:08.356Z,42.20
2017-11-29T21:14:09.917Z,47.27
2017-11-29T21:19:11.444Z,43.20
2017-11-29T21:24:13.805Z,38.90
2017-11-29T21:29:15.314Z,40.03
2017-11-29T21:34:16.838Z,47.20
2017-11-29T21:39:18.422Z,85.20
2017-11-29T21:44:19.941Z,31.60
2017-11-29T21:49:21.430Z,39.60
2017-11-29T21:54:22.917Z,34.80
2017-11-29T21:59:24.427Z,37.80
2017-11-29T22:04:25.934Z,41.73
2017-11-29T22:09:27.454Z,55.70
2017-11-29T22:14:28.991Z,37.33
2017-11-29T22:19:30.437Z,37.70
2017-11-29T22:24:31.970Z,38.30
2017-11-29T22:29:33.674Z,31.33
2017-11-29T22:34:35.219Z,31.47
2017-11-29T22:39:36.754Z,32.43
2017-11-29T22:44:38.972Z,38.27
2017-11-29T22:49:40.429Z,34.10
2017-11-29T22:54:42.184Z,32.30
2017-11-29T22:59:43.776Z,28.67
2017-11-29T23:04:45.322Z,36.30
2017-11-29T23:09:46.835Z,31.77
2017-11-29T23:14:48.554Z,33.93
2017-11-29T23:19:50.091Z,36.30
2017-11-29T23:24:51.754Z,31.03
2017-11-29T23:29:53.281Z,29.40
2017-11-29T23:34:54.817Z,28.80
2017-11-29T23:39:57.131Z,34.60
2017-11-29T23:44:58.663Z,34.87
2017-11-29T23:50:00.919Z,38.07
2017-11-29T23:55:02.468Z,33.50
